createdAt,value
2019-03-03T00:00:17.434Z,57.2
2019-03-03T00:03:47.476Z,57.25
2019-03-03T00:07:17.508Z,57.32
2019-03-03T00:10:47.619Z,57.35
2019-03-03T00:14:17.762Z,57.41
2019-03-03T00:17:47.836Z,57.47
2019-03-03T00:21:17.895Z,57.52
2019-03-03T00:24:48.057Z,57.6
2019-03-03T00:28:18.069Z,57.64
2019-03-03T00:31:49.071Z,57.7
2019-03-03T00:35:19.322Z,57.78
2019-03-03T00:38:57.594Z,57.86
2019-03-03T00:42:38.435Z,57.92
2019-03-03T00:48:33.311Z,58.05
2019-03-03T00:52:11.373Z,58.12
2019-03-03T00:55:46.654Z,58.19
2019-03-03T00:59:23.227Z,58.28
2019-03-03T01:02:59.138Z,58.37
2019-03-03T01:06:37.159Z,58.44
2019-03-03T01:10:12.394Z,58.51
2019-03-03T01:17:58.083Z,58.65
2019-03-03T01:21:34.005Z,58.72
2019-03-03T01:25:04.516Z,58.79
2019-03-03T01:28:34.629Z,58.86
2019-03-03T01:32:05.756Z,58.94
2019-03-03T01:35:35.782Z,59
2019-03-03T01:39:06.444Z,59.07
2019-03-03T01:42:36.495Z,59.15
2019-03-03T01:46:06.568Z,59.21
2019-03-03T01:49:36.599Z,59.27
2019-03-03T01:53:06.691Z,59.34
2019-03-03T01:56:36.773Z,59.41
2019-03-03T02:00:18.784Z,59.46
2019-03-03T02:03:48.776Z,59.53
2019-03-03T02:07:18.899Z,59.59
2019-03-03T02:10:48.880Z,59.67
2019-03-03T02:14:19.039Z,59.74
2019-03-03T02:17:49.263Z,59.8
2019-03-03T02:21:19.295Z,59.85
2019-03-03T02:24:49.327Z,59.92
2019-03-03T02:28:19.429Z,59.99
2019-03-03T02:31:49.651Z,60.06
2019-03-03T02:35:20.753Z,60.12
2019-03-03T02:38:50.794Z,60.17
2019-03-03T02:42:20.868Z,60.24
2019-03-03T02:45:50.959Z,60.31
2019-03-03T02:49:21.090Z,60.38
2019-03-03T02:52:51.062Z,60.43
2019-03-03T02:56:21.125Z,60.5
2019-03-03T02:59:51.194Z,60.56
2019-03-03T03:03:22.117Z,60.63
2019-03-03T03:06:57.270Z,60.69
2019-03-03T03:10:35.922Z,60.76
2019-03-03T03:14:11.782Z,60.8
2019-03-03T03:18:03.885Z,60.87
2019-03-03T03:21:43.944Z,60.93
2019-03-03T03:25:20.367Z,61.01
2019-03-03T03:29:04.964Z,61.04
2019-03-03T03:32:41.686Z,61.11
2019-03-03T03:36:27.431Z,61.17
2019-03-03T03:40:07.004Z,61.21
2019-03-03T03:44:03.398Z,61.26
2019-03-03T03:47:40.795Z,61.34
2019-03-03T03:51:37.160Z,61.37
2019-03-03T03:55:20.742Z,61.43
2019-03-03T03:59:06.357Z,61.47
2019-03-03T04:00:38.205Z,61.48
2019-03-03T04:04:16.260Z,61.55
2019-03-03T04:07:54.867Z,61.62
2019-03-03T04:11:32.432Z,61.65
2019-03-03T04:15:09.555Z,61.69
2019-03-03T04:18:48.523Z,61.76
2019-03-03T04:23:32.361Z,61.81
2019-03-03T04:27:17.024Z,61.87
2019-03-03T04:31:28.475Z,61.93
2019-03-03T04:36:17.171Z,61.98
2019-03-03T04:39:58.242Z,62.05
2019-03-03T04:44:06.003Z,62.12
2019-03-03T04:47:48.194Z,62.17
2019-03-03T04:51:28.475Z,62.24
2019-03-03T04:55:08.079Z,62.28
2019-03-03T04:59:00.347Z,62.33
2019-03-03T05:02:41.269Z,62.4
2019-03-03T05:06:19.241Z,62.46
2019-03-03T05:14:38.522Z,62.6
2019-03-03T05:18:17.723Z,62.66
2019-03-03T05:21:47.825Z,62.71
2019-03-03T05:25:17.980Z,62.79
2019-03-03T05:28:48.089Z,62.85
2019-03-03T05:32:18.181Z,62.92
2019-03-03T05:35:48.166Z,62.97
2019-03-03T05:39:18.135Z,63.02
2019-03-03T05:42:49.146Z,63.06
2019-03-03T05:46:19.199Z,63.09
2019-03-03T05:49:49.300Z,63.11
2019-03-03T05:53:19.383Z,63.13
2019-03-03T05:56:49.505Z,63.14
2019-03-03T06:00:15.897Z,63.15
2019-03-03T06:03:46.054Z,63.16
2019-03-03T06:07:16.109Z,63.2
2019-03-03T06:10:46.299Z,63.2
2019-03-03T06:14:16.362Z,63.21
2019-03-03T06:17:46.565Z,63.21
2019-03-03T06:21:16.717Z,63.24
2019-03-03T06:24:46.700Z,63.25
2019-03-03T06:28:16.725Z,63.23
2019-03-03T06:31:46.753Z,63.24
2019-03-03T06:35:16.853Z,63.24
2019-03-03T06:38:47.102Z,63.26
2019-03-03T06:42:17.162Z,63.25
2019-03-03T06:45:47.399Z,63.23
2019-03-03T06:49:17.423Z,63.25
2019-03-03T06:52:47.563Z,63.24
2019-03-03T06:56:17.554Z,63.24
2019-03-03T06:59:47.687Z,63.24
2019-03-03T07:03:17.769Z,63.17
2019-03-03T07:06:47.854Z,63.15
2019-03-03T07:10:17.911Z,63.09
2019-03-03T07:13:48.049Z,63.04
2019-03-03T07:17:18.045Z,62.97
2019-03-03T07:20:48.188Z,62.93
2019-03-03T07:24:18.295Z,62.84
2019-03-03T07:27:48.438Z,62.75
2019-03-03T07:31:18.529Z,62.67
2019-03-03T07:34:48.641Z,62.59
2019-03-03T07:38:18.643Z,62.47
2019-03-03T07:41:48.764Z,62.41
2019-03-03T07:45:18.808Z,62.29
2019-03-03T07:48:49.818Z,62.18
2019-03-03T07:52:19.850Z,62.08
2019-03-03T07:55:49.968Z,61.97
2019-03-03T07:59:20.133Z,61.87
2019-03-03T08:00:16.124Z,61.82
2019-03-03T08:03:46.204Z,61.68
2019-03-03T08:07:16.157Z,61.6
2019-03-03T08:10:46.179Z,61.47
2019-03-03T08:14:16.211Z,61.34
2019-03-03T08:17:46.365Z,61.2
2019-03-03T08:21:16.388Z,61.05
2019-03-03T08:24:46.435Z,60.91
2019-03-03T08:28:16.428Z,60.77
2019-03-03T08:31:46.482Z,60.6
2019-03-03T08:35:16.712Z,60.45
2019-03-03T08:38:46.763Z,60.28
2019-03-03T08:42:36.195Z,60.11
2019-03-03T08:46:29.757Z,59.93
2019-03-03T08:50:08.648Z,59.74
2019-03-03T08:58:30.793Z,59.35
2019-03-03T09:02:11.685Z,59.1
2019-03-03T09:06:09.439Z,58.91
2019-03-03T09:09:49.082Z,58.69
2019-03-03T09:13:28.665Z,58.52
2019-03-03T09:17:06.398Z,58.31
2019-03-03T09:20:42.460Z,58.14
2019-03-03T09:24:36.529Z,57.93
2019-03-03T09:28:17.995Z,57.72
2019-03-03T09:32:05.116Z,57.54
2019-03-03T09:35:57.578Z,57.33
2019-03-03T09:39:36.850Z,57.14
2019-03-03T09:43:16.343Z,56.94
2019-03-03T09:49:17.285Z,56.63
2019-03-03T09:52:57.646Z,56.44
2019-03-03T09:56:40.068Z,56.24
2019-03-03T10:00:39.733Z,56.07
2019-03-03T10:04:21.725Z,55.84
2019-03-03T10:08:04.834Z,55.65
2019-03-03T10:12:12.949Z,55.46
2019-03-03T10:16:22.729Z,55.26
2019-03-03T10:20:00.097Z,55.06
2019-03-03T10:23:37.975Z,54.92
2019-03-03T10:27:32.272Z,54.77
2019-03-03T10:31:43.474Z,54.59
2019-03-03T10:35:21.469Z,54.42
2019-03-03T10:39:28.973Z,54.25
2019-03-03T10:44:11.688Z,54.04
2019-03-03T10:47:48.763Z,53.82
2019-03-03T10:51:33.693Z,53.64
2019-03-03T10:55:10.787Z,53.46
2019-03-03T11:01:07.788Z,53.13
2019-03-03T11:05:02.095Z,52.95
2019-03-03T11:08:54.046Z,52.76
2019-03-03T11:12:34.908Z,52.53
2019-03-03T11:18:55.985Z,52.25
2019-03-03T11:22:39.421Z,52.08
2019-03-03T11:26:16.773Z,51.91
2019-03-03T11:30:11.588Z,51.72
2019-03-03T11:35:26.206Z,51.48
2019-03-03T11:39:51.704Z,51.29
2019-03-03T11:44:34.983Z,51.08
2019-03-03T11:48:13.882Z,50.87
2019-03-03T11:52:08.629Z,50.71
2019-03-03T11:55:47.558Z,50.48
2019-03-03T11:59:58.834Z,50.29
2019-03-03T12:00:26.727Z,50.21
2019-03-03T12:05:10.286Z,50.02
2019-03-03T12:09:51.853Z,49.76
2019-03-03T12:13:27.791Z,49.49
2019-03-03T12:17:06.091Z,49.32
2019-03-03T12:20:42.519Z,49.14
2019-03-03T12:24:19.038Z,48.93
2019-03-03T12:27:59.650Z,48.74
2019-03-03T12:31:50.946Z,48.59
2019-03-03T12:35:29.543Z,48.4
2019-03-03T12:39:07.801Z,48.24
2019-03-03T12:42:58.794Z,48.08
2019-03-03T12:46:36.749Z,47.87
2019-03-03T12:50:48.208Z,47.7
2019-03-03T12:55:15.665Z,47.49
2019-03-03T13:06:04.052Z,46.95
2019-03-03T13:09:58.960Z,46.81
2019-03-03T13:13:42.219Z,46.65
2019-03-03T13:22:03.506Z,46.33
2019-03-03T13:26:05.034Z,46.22
2019-03-03T13:29:46.183Z,46.09
2019-03-03T13:33:24.399Z,45.97
2019-03-03T13:37:01.210Z,45.85
2019-03-03T13:43:04.867Z,45.71
2019-03-03T13:46:34.987Z,45.63
2019-03-03T13:50:07.495Z,45.58
2019-03-03T13:53:37.643Z,45.51
2019-03-03T13:57:07.811Z,45.43
2019-03-03T14:00:18.591Z,45.38
2019-03-03T14:03:48.910Z,45.33
2019-03-03T14:07:19.978Z,45.28
2019-03-03T14:10:50.067Z,45.22
2019-03-03T14:14:20.206Z,45.17
2019-03-03T14:17:50.194Z,45.13
2019-03-03T14:21:20.303Z,45.08
2019-03-03T14:24:50.371Z,45.04
2019-03-03T14:28:20.350Z,44.97
2019-03-03T14:31:50.459Z,44.9
2019-03-03T14:35:20.540Z,44.87
2019-03-03T14:38:50.633Z,44.83
2019-03-03T14:42:20.725Z,44.79
2019-03-03T14:45:50.854Z,44.77
2019-03-03T14:49:20.862Z,44.75
2019-03-03T14:52:51.064Z,44.67
2019-03-03T14:56:21.071Z,44.63
2019-03-03T14:59:51.218Z,44.57
2019-03-03T15:03:21.273Z,44.46
2019-03-03T15:06:51.335Z,44.41
2019-03-03T15:10:22.394Z,44.34
2019-03-03T15:13:52.532Z,44.28
2019-03-03T15:17:22.480Z,44.24
2019-03-03T15:20:52.639Z,44.22
2019-03-03T15:24:22.768Z,44.19
2019-03-03T15:27:52.855Z,44.16
2019-03-03T15:31:22.907Z,44.15
2019-03-03T15:34:52.984Z,44.14
2019-03-03T15:38:23.011Z,44.11
2019-03-03T15:41:53.121Z,44.11
2019-03-03T15:45:23.479Z,44.09
2019-03-03T15:48:53.517Z,44.07
2019-03-03T15:52:23.676Z,44.08
2019-03-03T15:55:53.864Z,44.1
2019-03-03T15:59:23.853Z,44.12
2019-03-03T16:00:18.327Z,44.11
2019-03-03T16:03:48.361Z,44.15
2019-03-03T16:07:18.449Z,44.15
2019-03-03T16:10:49.548Z,44.19
2019-03-03T16:14:19.646Z,44.25
2019-03-03T16:17:49.717Z,44.28
2019-03-03T16:21:19.823Z,44.31
2019-03-03T16:24:49.901Z,44.4
2019-03-03T16:28:19.902Z,44.45
2019-03-03T16:31:50.119Z,44.51
2019-03-03T16:35:20.247Z,44.59
2019-03-03T16:38:50.346Z,44.66
2019-03-03T16:42:20.393Z,44.72
2019-03-03T16:45:50.542Z,44.79
2019-03-03T16:49:20.538Z,44.86
2019-03-03T16:52:50.707Z,44.92
2019-03-03T16:56:20.737Z,45
2019-03-03T16:59:50.798Z,45.05
2019-03-03T17:03:20.930Z,45.11
2019-03-03T17:06:50.942Z,45.18
2019-03-03T17:10:21.091Z,45.24
2019-03-03T17:13:52.219Z,45.33
2019-03-03T17:17:22.307Z,45.4
2019-03-03T17:20:52.486Z,45.45
2019-03-03T17:24:22.449Z,45.53
2019-03-03T17:27:52.549Z,45.61
2019-03-03T17:31:22.581Z,45.69
2019-03-03T17:34:52.720Z,45.72
2019-03-03T17:38:22.798Z,45.82
2019-03-03T17:41:52.886Z,45.89
2019-03-03T17:45:23.558Z,45.97
2019-03-03T17:48:53.663Z,46.05
2019-03-03T17:52:23.741Z,46.13
2019-03-03T17:55:53.810Z,46.2
2019-03-03T17:59:23.848Z,46.27
2019-03-03T18:00:18.299Z,46.29
2019-03-03T18:03:48.416Z,46.35
2019-03-03T18:07:18.454Z,46.44
2019-03-03T18:10:48.733Z,46.52
2019-03-03T18:14:19.802Z,46.62
2019-03-03T18:17:50.653Z,46.71
2019-03-03T18:21:20.772Z,46.77
2019-03-03T18:24:50.866Z,46.84
2019-03-03T18:28:20.954Z,46.94
2019-03-03T18:31:51.145Z,47.01
2019-03-03T18:35:21.131Z,47.11
2019-03-03T18:38:51.164Z,47.18
2019-03-03T18:42:21.268Z,47.28
2019-03-03T18:45:51.446Z,47.35
2019-03-03T18:49:21.394Z,47.45
2019-03-03T18:52:51.482Z,47.52
2019-03-03T18:56:21.481Z,47.62
2019-03-03T18:59:51.609Z,47.69
2019-03-03T19:03:21.788Z,47.76
2019-03-03T19:06:51.936Z,47.83
2019-03-03T19:10:24.970Z,47.93
2019-03-03T19:13:55.243Z,47.99
2019-03-03T19:17:26.911Z,48.08
2019-03-03T19:20:56.870Z,48.16
2019-03-03T19:24:26.948Z,48.23
2019-03-03T19:27:57.106Z,48.31
2019-03-03T19:31:27.134Z,48.39
2019-03-03T19:34:57.173Z,48.46
2019-03-03T19:38:27.058Z,48.53
2019-03-03T19:41:57.151Z,48.6
2019-03-03T19:45:28.908Z,48.67
2019-03-03T19:48:58.945Z,48.75
2019-03-03T19:52:28.914Z,48.82
2019-03-03T19:55:59.062Z,48.9
2019-03-03T19:59:29.140Z,48.97
2019-03-03T20:00:19.215Z,48.99
2019-03-03T20:03:49.328Z,49.08
2019-03-03T20:07:19.368Z,49.17
2019-03-03T20:10:49.638Z,49.24
2019-03-03T20:14:19.723Z,49.31
2019-03-03T20:17:50.841Z,49.41
2019-03-03T20:21:20.960Z,49.49
2019-03-03T20:24:51.098Z,49.58
2019-03-03T20:28:21.197Z,49.65
2019-03-03T20:31:51.375Z,49.74
2019-03-03T20:35:21.575Z,49.82
2019-03-03T20:38:51.688Z,49.92
2019-03-03T20:42:21.886Z,50.01
2019-03-03T20:45:52.078Z,50.1
2019-03-03T20:49:22.143Z,50.2
2019-03-03T20:52:52.211Z,50.33
2019-03-03T20:56:22.255Z,50.38
2019-03-03T20:59:52.371Z,50.49
2019-03-03T21:03:22.501Z,50.58
2019-03-03T21:06:52.563Z,50.67
2019-03-03T21:10:22.692Z,50.76
2019-03-03T21:13:52.799Z,50.82
2019-03-03T21:17:22.847Z,50.92
2019-03-03T21:20:53.895Z,51.02
2019-03-03T21:24:23.870Z,51.12
2019-03-03T21:27:53.895Z,51.23
2019-03-03T21:31:23.916Z,51.3
2019-03-03T21:34:54.033Z,51.4
2019-03-03T21:38:24.026Z,51.48
2019-03-03T21:41:54.093Z,51.58
2019-03-03T21:45:24.319Z,51.65
2019-03-03T21:48:54.306Z,51.75
2019-03-03T21:52:24.270Z,51.83
2019-03-03T21:55:54.321Z,51.95
2019-03-03T21:59:24.363Z,52.03
2019-03-03T22:00:20.776Z,52.04
2019-03-03T22:03:50.892Z,52.15
2019-03-03T22:07:20.946Z,52.24
2019-03-03T22:10:51.055Z,52.34
2019-03-03T22:14:21.093Z,52.41
2019-03-03T22:17:51.299Z,52.53
2019-03-03T22:21:22.265Z,52.61
2019-03-03T22:24:52.272Z,52.71
2019-03-03T22:28:22.359Z,52.79
2019-03-03T22:31:52.586Z,52.88
2019-03-03T22:35:22.542Z,52.98
2019-03-03T22:38:52.568Z,53.06
2019-03-03T22:42:22.629Z,53.14
2019-03-03T22:45:52.688Z,53.23
2019-03-03T22:49:22.740Z,53.31
2019-03-03T22:52:52.776Z,53.41
2019-03-03T22:56:22.802Z,53.49
2019-03-03T22:59:52.849Z,53.55
2019-03-03T23:03:36.506Z,53.65
2019-03-03T23:07:14.454Z,53.76
2019-03-03T23:11:02.679Z,53.85
2019-03-03T23:14:37.336Z,53.93
2019-03-03T23:18:43.672Z,54.03
2019-03-03T23:22:37.538Z,54.1
2019-03-03T23:26:16.297Z,54.23
2019-03-03T23:29:46.961Z,54.32
2019-03-03T23:33:17.597Z,54.39
2019-03-03T23:36:47.624Z,54.49
2019-03-03T23:40:17.741Z,54.57
2019-03-03T23:43:48.008Z,54.63
2019-03-03T23:47:18.126Z,54.71
2019-03-03T23:50:48.121Z,54.8
2019-03-03T23:54:18.218Z,54.86
2019-03-03T23:57:48.345Z,54.96
